createdAt,value
2022-11-27T00:00:30.044Z,2.10
2022-11-27T00:03:16.248Z,2.10
2022-11-27T00:06:02.158Z,2.20
2022-11-27T00:08:48.607Z,2.10
2022-11-27T00:11:34.777Z,2.10
2022-11-27T00:14:20.601Z,2.10
2022-11-27T00:17:06.645Z,2.00
2022-11-27T00:19:52.375Z,2.00
2022-11-27T00:22:38.528Z,1.90
2022-11-27T00:25:24.571Z,1.90
2022-11-27T00:28:10.477Z,1.90
2022-11-27T00:31:00.323Z,1.90
2022-11-27T00:33:46.698Z,1.80
2022-11-27T00:36:34.002Z,1.80
2022-11-27T00:39:20.919Z,1.90
2022-11-27T00:42:06.917Z,1.80
2022-11-27T00:44:52.953Z,1.80
2022-11-27T00:47:39.132Z,1.80
2022-11-27T00:50:25.176Z,1.80
2022-11-27T00:53:12.479Z,1.90
2022-11-27T00:55:58.638Z,1.80
2022-11-27T00:58:44.460Z,1.80
2022-11-27T01:01:32.527Z,1.70
2022-11-27T01:04:18.693Z,1.60
2022-11-27T01:07:04.628Z,1.60
2022-11-27T01:09:50.629Z,1.60
2022-11-27T01:12:36.711Z,1.60
2022-11-27T01:15:22.712Z,1.50
2022-11-27T01:18:09.120Z,1.40
2022-11-27T01:20:55.545Z,1.50
2022-11-27T01:23:41.476Z,1.40
2022-11-27T01:26:27.613Z,1.50
2022-11-27T01:29:13.423Z,1.40
2022-11-27T01:31:59.431Z,1.40
2022-11-27T01:34:45.469Z,1.40
2022-11-27T01:37:31.505Z,1.40
2022-11-27T01:40:17.791Z,1.50
2022-11-27T01:43:03.635Z,1.40
2022-11-27T01:45:49.363Z,1.40
2022-11-27T01:48:35.524Z,1.40
2022-11-27T01:51:22.327Z,1.40
2022-11-27T01:54:09.406Z,1.30
2022-11-27T01:56:56.661Z,1.30
2022-11-27T01:59:42.551Z,1.20
2022-11-27T02:02:28.559Z,1.20
2022-11-27T02:05:19.326Z,1.10
2022-11-27T02:08:10.354Z,1.10
2022-11-27T02:11:01.223Z,1.10
2022-11-27T02:14:20.142Z,1.10
2022-11-27T02:17:08.526Z,1.00
2022-11-27T02:20:12.338Z,1.00
2022-11-27T02:23:04.519Z,1.00
2022-11-27T02:26:07.976Z,1.00
2022-11-27T02:28:54.121Z,1.10
2022-11-27T02:31:40.179Z,1.10
2022-11-27T02:34:41.529Z,1.10
2022-11-27T02:37:32.652Z,1.10
2022-11-27T02:40:18.265Z,1.10
2022-11-27T02:43:09.677Z,1.10
2022-11-27T02:45:55.731Z,1.10
2022-11-27T02:48:47.401Z,1.20
2022-11-27T02:51:37.343Z,1.30
2022-11-27T02:54:28.113Z,1.30
2022-11-27T02:57:14.764Z,1.40
2022-11-27T03:00:01.245Z,1.40
2022-11-27T03:02:50.505Z,1.40
2022-11-27T03:05:39.489Z,1.30
2022-11-27T03:08:25.632Z,1.30
2022-11-27T03:11:12.686Z,1.30
2022-11-27T03:14:06.890Z,1.20
2022-11-27T03:16:55.903Z,1.20
2022-11-27T03:19:53.357Z,1.10
2022-11-27T03:22:39.205Z,1.10
2022-11-27T03:25:25.456Z,1.10
2022-11-27T03:28:12.884Z,1.20
2022-11-27T03:30:59.258Z,1.20
2022-11-27T03:33:44.960Z,1.10
2022-11-27T03:36:31.040Z,1.20
2022-11-27T03:39:17.185Z,1.10
2022-11-27T03:42:12.311Z,1.20
2022-11-27T03:44:58.537Z,1.00
2022-11-27T03:48:03.269Z,1.00
2022-11-27T03:51:01.760Z,0.90
2022-11-27T03:54:23.228Z,0.90
2022-11-27T03:57:17.671Z,0.90
2022-11-27T04:00:08.228Z,0.60
2022-11-27T04:02:54.278Z,0.70
2022-11-27T04:05:40.509Z,0.80
2022-11-27T04:08:26.632Z,0.80
2022-11-27T04:11:12.764Z,0.70
2022-11-27T04:13:58.647Z,0.80
2022-11-27T04:16:44.588Z,0.90
2022-11-27T04:19:30.636Z,1.00
2022-11-27T04:22:16.735Z,1.10
2022-11-27T04:25:02.930Z,1.10
2022-11-27T04:27:49.468Z,1.10
2022-11-27T04:30:35.332Z,1.00
2022-11-27T04:33:21.608Z,0.80
2022-11-27T04:36:07.518Z,0.80
2022-11-27T04:38:53.403Z,0.80
2022-11-27T04:41:39.753Z,0.80
2022-11-27T04:44:25.750Z,0.80
2022-11-27T04:47:11.822Z,0.70
2022-11-27T04:49:57.865Z,0.60
2022-11-27T04:52:44.282Z,0.60
2022-11-27T04:55:30.436Z,0.60
2022-11-27T04:58:16.448Z,0.60
2022-11-27T05:01:02.441Z,0.60
2022-11-27T05:03:48.525Z,0.50
2022-11-27T05:06:34.660Z,0.40
2022-11-27T05:09:20.604Z,0.50
2022-11-27T05:12:06.541Z,0.50
2022-11-27T05:14:52.504Z,0.40
2022-11-27T05:17:38.652Z,0.40
2022-11-27T05:20:24.693Z,0.40
2022-11-27T05:23:10.857Z,0.20
2022-11-27T05:25:57.089Z,0.30
2022-11-27T05:28:42.855Z,0.30
2022-11-27T05:31:29.107Z,0.20
2022-11-27T05:34:15.166Z,0.20
2022-11-27T05:37:01.263Z,0.20
2022-11-27T05:39:47.510Z,0.20
2022-11-27T05:42:33.433Z,0.10
2022-11-27T05:45:19.493Z,0.10
2022-11-27T05:48:05.593Z,0.10
2022-11-27T05:50:51.664Z,0.10
2022-11-27T05:53:37.755Z,0.00
2022-11-27T05:56:23.899Z,0.00
2022-11-27T05:59:10.851Z,0.00
2022-11-27T06:01:56.668Z,0.00
2022-11-27T06:04:42.852Z,-0.10
2022-11-27T06:07:28.814Z,-0.20
2022-11-27T06:10:14.852Z,-0.10
2022-11-27T06:13:00.812Z,-0.20
2022-11-27T06:15:46.859Z,-0.10
2022-11-27T06:18:32.791Z,-0.10
2022-11-27T06:21:19.841Z,0.00
2022-11-27T06:24:06.249Z,0.10
2022-11-27T06:26:52.137Z,0.10
2022-11-27T06:29:38.267Z,0.20
2022-11-27T06:32:24.328Z,0.00
2022-11-27T06:35:10.522Z,0.10
2022-11-27T06:37:56.443Z,0.10
2022-11-27T06:40:42.489Z,0.00
2022-11-27T06:43:28.369Z,0.10
2022-11-27T06:46:16.129Z,0.00
2022-11-27T06:49:02.473Z,0.00
2022-11-27T06:51:48.744Z,0.00
2022-11-27T06:54:34.900Z,0.00
2022-11-27T06:57:20.898Z,0.10
2022-11-27T07:00:07.092Z,0.20
2022-11-27T07:02:53.888Z,0.20
2022-11-27T07:05:39.910Z,0.20
2022-11-27T07:08:25.977Z,0.30
2022-11-27T07:11:14.991Z,0.40
2022-11-27T07:14:02.137Z,0.50
2022-11-27T07:16:47.881Z,0.50
2022-11-27T07:19:34.092Z,0.60
2022-11-27T07:22:20.039Z,0.80
2022-11-27T07:25:06.465Z,0.90
2022-11-27T07:27:52.337Z,1.10
2022-11-27T07:30:38.418Z,1.30
2022-11-27T07:33:24.986Z,1.80
2022-11-27T07:36:12.888Z,2.10
2022-11-27T07:38:58.626Z,2.40
2022-11-27T07:41:44.782Z,3.00
2022-11-27T07:44:30.919Z,3.60
2022-11-27T07:47:16.981Z,4.30
2022-11-27T07:50:03.333Z,4.70
2022-11-27T07:52:49.065Z,5.30
2022-11-27T07:55:37.416Z,5.90
2022-11-27T07:58:23.331Z,6.20
2022-11-27T08:01:10.327Z,6.30
2022-11-27T08:03:56.357Z,6.20
2022-11-27T08:06:42.555Z,6.40
2022-11-27T08:09:29.245Z,6.40
2022-11-27T08:12:15.106Z,6.30
2022-11-27T08:15:00.920Z,6.10
2022-11-27T08:17:46.831Z,6.20
2022-11-27T08:20:33.057Z,6.20
2022-11-27T08:23:19.079Z,6.20
2022-11-27T08:26:05.677Z,5.80
2022-11-27T08:28:52.132Z,6.00
2022-11-27T08:31:38.047Z,5.80
2022-11-27T08:34:23.950Z,5.70
2022-11-27T08:37:09.968Z,5.70
2022-11-27T08:39:55.976Z,5.20
2022-11-27T08:42:41.762Z,4.90
2022-11-27T08:45:28.007Z,4.40
2022-11-27T08:48:14.006Z,4.20
2022-11-27T08:51:00.046Z,3.90
2022-11-27T08:53:46.108Z,3.80
2022-11-27T08:56:32.154Z,3.60
2022-11-27T08:59:18.081Z,3.60
2022-11-27T09:02:04.170Z,3.50
2022-11-27T09:04:50.333Z,3.40
2022-11-27T09:07:36.556Z,3.30
2022-11-27T09:10:22.953Z,3.20
2022-11-27T09:13:09.039Z,3.30
2022-11-27T09:15:55.789Z,3.40
2022-11-27T09:18:43.937Z,3.40
2022-11-27T09:21:30.673Z,3.60
2022-11-27T09:24:16.792Z,3.60
2022-11-27T09:27:02.544Z,3.60
2022-11-27T09:29:49.643Z,3.80
2022-11-27T09:32:35.794Z,4.40
2022-11-27T09:35:21.761Z,5.30
2022-11-27T09:38:07.877Z,5.90
2022-11-27T09:41:01.791Z,6.90
2022-11-27T09:43:53.576Z,7.40
2022-11-27T09:46:41.237Z,7.80
2022-11-27T09:49:29.912Z,8.20
2022-11-27T09:52:34.650Z,8.90
2022-11-27T09:55:23.931Z,9.30
2022-11-27T09:58:22.161Z,10.20
2022-11-27T10:01:16.033Z,11.20
2022-11-27T10:04:02.998Z,12.10
2022-11-27T10:07:28.277Z,13.00
2022-11-27T10:10:20.067Z,13.70
2022-11-27T10:13:32.307Z,14.20
2022-11-27T10:16:20.963Z,14.40
2022-11-27T10:19:21.998Z,13.90
2022-11-27T10:22:17.911Z,13.40
2022-11-27T10:25:08.652Z,12.30
2022-11-27T10:27:57.903Z,11.80
2022-11-27T10:30:56.445Z,11.90
2022-11-27T10:33:44.891Z,12.20
2022-11-27T10:36:37.012Z,13.10
2022-11-27T10:39:28.829Z,13.40
2022-11-27T10:42:33.308Z,13.90
2022-11-27T10:45:31.915Z,12.70
2022-11-27T10:48:17.774Z,12.00
2022-11-27T10:51:03.901Z,12.50
2022-11-27T10:53:52.156Z,12.50
2022-11-27T10:56:56.924Z,12.20
2022-11-27T11:00:01.951Z,12.10
2022-11-27T11:02:48.088Z,11.30
2022-11-27T11:05:50.954Z,10.80
2022-11-27T11:08:40.553Z,9.80
2022-11-27T11:11:27.154Z,8.90
2022-11-27T11:14:19.314Z,8.40
2022-11-27T11:17:15.277Z,8.10
2022-11-27T11:20:12.295Z,7.70
2022-11-27T11:22:58.249Z,7.20
2022-11-27T11:25:49.036Z,6.90
2022-11-27T11:28:39.544Z,6.70
2022-11-27T11:31:30.947Z,6.40
2022-11-27T11:34:20.859Z,6.40
2022-11-27T11:37:07.958Z,6.20
2022-11-27T11:39:59.807Z,6.10
2022-11-27T11:43:10.124Z,5.90
2022-11-27T11:46:03.376Z,5.80
2022-11-27T11:48:53.320Z,5.60
2022-11-27T11:51:55.794Z,5.30
2022-11-27T11:55:00.213Z,5.10
2022-11-27T11:58:12.808Z,5.20
2022-11-27T12:01:26.452Z,5.10
2022-11-27T12:04:41.755Z,5.20
2022-11-27T12:07:52.056Z,5.40
2022-11-27T12:10:38.412Z,5.40
2022-11-27T12:13:39.564Z,5.50
2022-11-27T12:16:45.934Z,5.50
2022-11-27T12:19:42.019Z,5.30
2022-11-27T12:22:38.033Z,5.00
2022-11-27T12:25:42.392Z,5.00
2022-11-27T12:28:39.007Z,4.80
2022-11-27T12:31:27.979Z,4.80
2022-11-27T12:34:14.623Z,4.90
2022-11-27T12:37:00.464Z,5.00
2022-11-27T12:39:46.363Z,5.00
2022-11-27T12:42:38.549Z,4.90
2022-11-27T12:45:27.770Z,4.80
2022-11-27T12:48:13.823Z,4.70
2022-11-27T12:51:03.018Z,4.70
2022-11-27T12:53:52.074Z,4.80
2022-11-27T12:56:45.988Z,4.80
2022-11-27T12:59:52.148Z,4.80
2022-11-27T13:02:43.945Z,4.70
2022-11-27T13:05:32.416Z,4.60
2022-11-27T13:08:33.651Z,4.40
2022-11-27T13:11:23.069Z,4.30
2022-11-27T13:14:25.377Z,4.20
2022-11-27T13:17:16.217Z,4.20
2022-11-27T13:20:03.001Z,4.10
2022-11-27T13:22:49.958Z,4.10
2022-11-27T13:25:40.776Z,4.00
2022-11-27T13:28:32.754Z,4.00
2022-11-27T13:31:23.549Z,4.10
2022-11-27T13:34:15.780Z,4.10
2022-11-27T13:37:04.711Z,4.10
2022-11-27T13:39:50.632Z,4.10
2022-11-27T13:42:41.233Z,4.10
2022-11-27T13:45:32.232Z,4.10
2022-11-27T13:48:31.989Z,4.10
2022-11-27T13:51:37.575Z,4.10
2022-11-27T13:54:28.891Z,4.10
2022-11-27T13:57:16.818Z,4.10
2022-11-27T14:00:11.737Z,4.00
2022-11-27T14:03:01.044Z,4.00
2022-11-27T14:05:46.956Z,3.90
2022-11-27T14:08:35.074Z,4.00
2022-11-27T14:11:30.137Z,3.90
2022-11-27T14:14:21.313Z,3.80
2022-11-27T14:17:22.544Z,3.90
2022-11-27T14:20:17.913Z,3.80
2022-11-27T14:23:12.824Z,3.90
2022-11-27T14:26:06.945Z,3.90
2022-11-27T14:28:56.143Z,3.90
2022-11-27T14:31:43.112Z,3.90
2022-11-27T14:34:29.890Z,4.00
2022-11-27T14:37:21.841Z,3.90
2022-11-27T14:40:15.189Z,3.90
2022-11-27T14:43:14.279Z,3.80
2022-11-27T14:46:01.939Z,3.80
2022-11-27T14:48:55.411Z,3.90
2022-11-27T14:51:43.203Z,3.90
2022-11-27T14:54:31.751Z,4.00
2022-11-27T14:57:22.378Z,4.00
2022-11-27T15:00:16.117Z,4.10
2022-11-27T15:03:09.330Z,4.00
2022-11-27T15:06:06.325Z,4.10
2022-11-27T15:09:15.832Z,4.00
2022-11-27T15:11:59.589Z,3.90
2022-11-27T15:15:05.831Z,3.90
2022-11-27T15:17:55.397Z,3.80
2022-11-27T15:20:42.488Z,3.90
2022-11-27T15:23:29.367Z,3.80
2022-11-27T15:26:33.475Z,3.90
2022-11-27T15:29:38.172Z,3.90
2022-11-27T15:32:25.488Z,4.00
2022-11-27T15:35:15.567Z,4.10
2022-11-27T15:38:08.632Z,4.10
2022-11-27T15:41:00.766Z,4.00
2022-11-27T15:43:46.833Z,4.00
2022-11-27T15:46:34.519Z,4.00
2022-11-27T15:49:22.036Z,4.00
2022-11-27T15:52:07.899Z,4.00
2022-11-27T15:54:55.364Z,4.00
2022-11-27T15:57:41.637Z,4.00
2022-11-27T16:00:27.614Z,4.10
2022-11-27T16:03:14.341Z,4.00
2022-11-27T16:06:07.164Z,3.80
2022-11-27T16:08:56.448Z,3.80
2022-11-27T16:11:42.581Z,3.70
2022-11-27T16:14:28.422Z,3.70
2022-11-27T16:17:14.268Z,3.60
2022-11-27T16:20:00.156Z,3.60
2022-11-27T16:22:46.274Z,3.60
2022-11-27T16:25:37.934Z,3.60
2022-11-27T16:28:25.028Z,3.60
2022-11-27T16:31:12.135Z,3.70
2022-11-27T16:33:59.640Z,3.80
2022-11-27T16:36:46.052Z,3.70
2022-11-27T16:39:34.119Z,3.60
2022-11-27T16:42:21.669Z,3.60
2022-11-27T16:45:08.264Z,3.50
2022-11-27T16:47:54.260Z,3.40
2022-11-27T16:50:40.544Z,3.30
2022-11-27T16:53:26.865Z,3.30
2022-11-27T16:56:14.590Z,3.20
2022-11-27T16:59:02.982Z,3.10
2022-11-27T17:01:50.064Z,3.10
2022-11-27T17:04:36.340Z,3.00
2022-11-27T17:07:22.460Z,3.00
2022-11-27T17:10:08.760Z,3.10
2022-11-27T17:12:54.568Z,3.10
2022-11-27T17:15:41.011Z,3.10
2022-11-27T17:18:27.989Z,3.10
2022-11-27T17:21:15.775Z,3.00
2022-11-27T17:24:03.425Z,3.00
2022-11-27T17:26:55.332Z,3.00
2022-11-27T17:29:48.865Z,3.00
2022-11-27T17:32:36.062Z,3.00
2022-11-27T17:35:22.065Z,2.90
2022-11-27T17:38:08.071Z,2.90
2022-11-27T17:40:58.830Z,2.90
2022-11-27T17:43:44.783Z,2.90
2022-11-27T17:46:30.777Z,2.90
2022-11-27T17:49:17.095Z,3.00
2022-11-27T17:52:06.493Z,2.90
2022-11-27T17:54:54.014Z,2.90
2022-11-27T17:57:40.504Z,3.00
2022-11-27T18:00:26.569Z,3.00
2022-11-27T18:03:12.764Z,3.00
2022-11-27T18:06:02.319Z,2.90
2022-11-27T18:08:48.852Z,2.90
2022-11-27T18:11:35.012Z,2.80
2022-11-27T18:14:21.183Z,2.90
2022-11-27T18:17:07.265Z,2.90
2022-11-27T18:19:53.141Z,3.00
2022-11-27T18:22:39.133Z,3.00
2022-11-27T18:25:25.445Z,2.90
2022-11-27T18:28:11.524Z,2.90
2022-11-27T18:30:57.669Z,2.80
2022-11-27T18:33:44.053Z,2.80
2022-11-27T18:36:31.102Z,2.80
2022-11-27T18:39:17.043Z,2.90
2022-11-27T18:42:05.143Z,2.90
2022-11-27T18:44:52.084Z,2.90
2022-11-27T18:47:38.049Z,2.90
2022-11-27T18:50:28.311Z,2.90
2022-11-27T18:53:15.696Z,3.00
2022-11-27T18:56:02.520Z,2.90
2022-11-27T18:58:49.650Z,3.00
2022-11-27T19:01:41.259Z,3.00
2022-11-27T19:04:27.922Z,3.00
2022-11-27T19:07:13.960Z,3.00
2022-11-27T19:09:59.954Z,3.10
2022-11-27T19:12:46.492Z,3.20
2022-11-27T19:15:32.913Z,3.10
2022-11-27T19:18:18.920Z,3.10
2022-11-27T19:21:11.743Z,3.10
2022-11-27T19:23:59.185Z,3.10
2022-11-27T19:26:45.052Z,3.10
2022-11-27T19:29:31.766Z,3.20
2022-11-27T19:32:17.881Z,3.20
2022-11-27T19:35:07.197Z,3.20
2022-11-27T19:37:53.704Z,3.30
2022-11-27T19:40:41.503Z,3.30
2022-11-27T19:43:28.509Z,3.30
2022-11-27T19:46:15.704Z,3.30
2022-11-27T19:49:03.607Z,3.30
2022-11-27T19:51:49.904Z,3.30
2022-11-27T19:54:37.521Z,3.30
2022-11-27T19:57:23.578Z,3.30
2022-11-27T20:00:10.022Z,3.30
2022-11-27T20:03:03.918Z,3.30
2022-11-27T20:05:49.942Z,3.30
2022-11-27T20:08:35.979Z,3.30
2022-11-27T20:11:22.815Z,3.30
2022-11-27T20:14:08.589Z,3.30
2022-11-27T20:16:54.691Z,3.30
2022-11-27T20:19:41.424Z,3.30
2022-11-27T20:22:28.551Z,3.20
2022-11-27T20:25:21.417Z,3.20
2022-11-27T20:28:08.731Z,3.20
2022-11-27T20:30:58.595Z,3.20
2022-11-27T20:33:44.620Z,3.20
2022-11-27T20:36:31.488Z,3.20
2022-11-27T20:39:21.338Z,3.20
2022-11-27T20:42:07.817Z,3.30
2022-11-27T20:44:53.773Z,3.30
2022-11-27T20:47:39.798Z,3.30
2022-11-27T20:50:25.927Z,3.20
2022-11-27T20:53:11.865Z,3.20
2022-11-27T20:56:01.341Z,3.10
2022-11-27T20:58:48.024Z,3.10
2022-11-27T21:01:35.513Z,3.10
2022-11-27T21:04:23.080Z,3.10
2022-11-27T21:07:09.151Z,3.10
2022-11-27T21:09:55.258Z,3.00
2022-11-27T21:12:41.967Z,3.00
2022-11-27T21:15:27.627Z,3.10
2022-11-27T21:18:13.949Z,3.10
2022-11-27T21:21:11.463Z,3.00
2022-11-27T21:23:57.216Z,3.10
2022-11-27T21:26:43.855Z,3.10
2022-11-27T21:29:30.759Z,3.10
2022-11-27T21:32:22.689Z,3.00
2022-11-27T21:35:08.761Z,3.00
2022-11-27T21:37:55.001Z,3.00
2022-11-27T21:40:41.093Z,3.00
2022-11-27T21:43:27.137Z,3.00
2022-11-27T21:46:14.837Z,3.10
2022-11-27T21:49:01.400Z,3.10
2022-11-27T21:51:50.975Z,3.10
2022-11-27T21:54:37.191Z,3.10
2022-11-27T21:57:23.385Z,3.20
2022-11-27T22:00:09.722Z,3.20
2022-11-27T22:02:58.168Z,3.10
2022-11-27T22:05:44.292Z,3.10
2022-11-27T22:08:31.045Z,3.10
2022-11-27T22:11:18.263Z,3.10
2022-11-27T22:14:06.235Z,3.20
2022-11-27T22:16:52.484Z,3.20
2022-11-27T22:19:42.378Z,3.30
2022-11-27T22:22:28.765Z,3.30
2022-11-27T22:25:17.928Z,3.30
2022-11-27T22:28:04.157Z,3.30
2022-11-27T22:30:50.334Z,3.30
2022-11-27T22:33:37.134Z,3.30
2022-11-27T22:36:25.436Z,3.30
2022-11-27T22:39:11.969Z,3.30
2022-11-27T22:41:58.105Z,3.20
2022-11-27T22:44:44.392Z,3.20
2022-11-27T22:47:30.644Z,3.10
2022-11-27T22:50:17.252Z,3.10
2022-11-27T22:53:03.227Z,3.10
2022-11-27T22:55:49.197Z,3.00
2022-11-27T22:58:40.932Z,3.10
2022-11-27T23:01:27.528Z,3.10
2022-11-27T23:04:13.936Z,3.20
2022-11-27T23:07:00.002Z,3.30
2022-11-27T23:09:47.388Z,3.30
2022-11-27T23:12:33.360Z,3.30
2022-11-27T23:15:19.399Z,3.30
2022-11-27T23:18:05.897Z,3.30
2022-11-27T23:20:51.588Z,3.30
2022-11-27T23:23:37.690Z,3.30
2022-11-27T23:26:24.140Z,3.30
2022-11-27T23:29:10.430Z,3.30
2022-11-27T23:31:56.116Z,3.40
2022-11-27T23:34:42.087Z,3.40
2022-11-27T23:37:27.908Z,3.50
2022-11-27T23:40:14.976Z,3.50
2022-11-27T23:43:00.911Z,3.50
2022-11-27T23:45:47.008Z,3.50
2022-11-27T23:48:33.733Z,3.40
2022-11-27T23:51:21.021Z,3.40
2022-11-27T23:54:08.776Z,3.50
2022-11-27T23:56:55.635Z,3.50
2022-11-27T23:59:41.657Z,3.50
